TKJ4BR LTFJ-LTCO
Flight info
| Callsign | TKJ4BR |
|---|---|
| Flight time | 1h 30m |
| Altitude | 37000 |
| Route | VICEN T380 ASMAP L333 EVLIG UL333 LATGA UT363 GURBU UA4 ERZ UL851 INBAT |
| Aircraft | B738/M-SDE2E3FGHIRWXY/LB1 |
Departure
| Time | 2026-04-27 07:32 |
|---|---|
| Airport | Istanbul Sabiha Gökçen International Airport (LTFJ) |
Arrival
| Time | 2026-04-27 09:02 |
|---|---|
| Airport | Ağrı Airport (LTCO) |
| Time | Latitude | Longitude | Altitude | Speed | Heading |
|---|---|---|---|---|---|
| 2026-04-27 07:04 | 40.90712 | 29.31851 | 310 ft | 0 kts | 334° |
| 2026-04-27 07:22 | 40.90694 | 29.31863 | 310 ft | 4 kts | 334° |
| 2026-04-27 07:22 | 40.90670 | 29.31878 | 309 ft | 4 kts | 334° |
| 2026-04-27 07:22 | 40.90646 | 29.31894 | 308 ft | 4 kts | 332° |
| 2026-04-27 07:23 | 40.90622 | 29.31911 | 307 ft | 4 kts | 329° |
| 2026-04-27 07:23 | 40.90604 | 29.31925 | 308 ft | 1 kts | 329° |
| 2026-04-27 07:23 | 40.90601 | 29.31928 | 309 ft | 0 kts | 329° |
| 2026-04-27 07:25 | 40.90602 | 29.31927 | 309 ft | 1 kts | 329° |
| 2026-04-27 07:25 | 40.90606 | 29.31863 | 309 ft | 15 kts | 246° |
| 2026-04-27 07:25 | 40.90556 | 29.31726 | 309 ft | 17 kts | 244° |
| 2026-04-27 07:26 | 40.90505 | 29.31589 | 310 ft | 16 kts | 244° |
| 2026-04-27 07:26 | 40.90460 | 29.31467 | 310 ft | 10 kts | 243° |
| 2026-04-27 07:26 | 40.90400 | 29.31444 | 310 ft | 10 kts | 159° |
| 2026-04-27 07:26 | 40.90339 | 29.31483 | 310 ft | 10 kts | 154° |
| 2026-04-27 07:27 | 40.90278 | 29.31485 | 310 ft | 9 kts | 221° |
| 2026-04-27 07:27 | 40.90245 | 29.31408 | 310 ft | 11 kts | 245° |
| 2026-04-27 07:27 | 40.90199 | 29.31283 | 310 ft | 20 kts | 244° |
| 2026-04-27 07:27 | 40.90126 | 29.31087 | 310 ft | 27 kts | 243° |
| 2026-04-27 07:28 | 40.90044 | 29.30868 | 310 ft | 26 kts | 244° |
| 2026-04-27 07:28 | 40.89970 | 29.30660 | 310 ft | 24 kts | 244° |
| 2026-04-27 07:28 | 40.89899 | 29.30467 | 310 ft | 23 kts | 244° |
| 2026-04-27 07:28 | 40.89830 | 29.30281 | 309 ft | 22 kts | 244° |
| 2026-04-27 07:29 | 40.89763 | 29.30100 | 308 ft | 22 kts | 244° |
| 2026-04-27 07:29 | 40.89698 | 29.29926 | 308 ft | 21 kts | 244° |
| 2026-04-27 07:29 | 40.89634 | 29.29755 | 306 ft | 20 kts | 244° |
| 2026-04-27 07:29 | 40.89573 | 29.29587 | 302 ft | 20 kts | 244° |
| 2026-04-27 07:30 | 40.89512 | 29.29425 | 302 ft | 19 kts | 243° |
| 2026-04-27 07:30 | 40.89449 | 29.29273 | 301 ft | 19 kts | 224° |
| 2026-04-27 07:30 | 40.89401 | 29.29254 | 302 ft | 5 kts | 175° |
| 2026-04-27 07:30 | 40.89363 | 29.29273 | 302 ft | 7 kts | 156° |
| 2026-04-27 07:31 | 40.89295 | 29.29316 | 300 ft | 14 kts | 152° |
| 2026-04-27 07:31 | 40.89288 | 29.29384 | 302 ft | 8 kts | 62° |
| 2026-04-27 07:31 | 40.89291 | 29.29390 | 303 ft | 0 kts | 63° |
| 2026-04-27 07:31 | 40.89327 | 29.29486 | 303 ft | 41 kts | 63° |
| 2026-04-27 07:32 | 40.89557 | 29.30111 | 310 ft | 108 kts | 64° |
| 2026-04-27 07:32 | 40.89971 | 29.31209 | 503 ft | 146 kts | 63° |
| 2026-04-27 07:32 | 40.90426 | 29.32386 | 1393 ft | 143 kts | 63° |
| 2026-04-27 07:32 | 40.90839 | 29.33524 | 2414 ft | 137 kts | 64° |
| 2026-04-27 07:33 | 40.91282 | 29.34752 | 2902 ft | 167 kts | 66° |
| 2026-04-27 07:33 | 40.91831 | 29.36275 | 3184 ft | 197 kts | 65° |
| 2026-04-27 07:33 | 40.92441 | 29.37962 | 3712 ft | 209 kts | 65° |
| 2026-04-27 07:33 | 40.92838 | 29.39858 | 4282 ft | 222 kts | 86° |
| 2026-04-27 07:34 | 40.92569 | 29.41914 | 4999 ft | 236 kts | 107° |
| 2026-04-27 07:34 | 40.91956 | 29.43987 | 5779 ft | 248 kts | 108° |
| 2026-04-27 07:34 | 40.91293 | 29.46191 | 6345 ft | 266 kts | 110° |
| 2026-04-27 07:34 | 40.90589 | 29.48502 | 6981 ft | 278 kts | 110° |
| 2026-04-27 07:35 | 40.89853 | 29.50908 | 7762 ft | 285 kts | 110° |
| 2026-04-27 07:35 | 40.89098 | 29.53379 | 8599 ft | 288 kts | 109° |
| 2026-04-27 07:35 | 40.88346 | 29.55844 | 9352 ft | 297 kts | 108° |
| 2026-04-27 07:35 | 40.87566 | 29.58399 | 10219 ft | 299 kts | 109° |
| 2026-04-27 07:36 | 40.86785 | 29.60965 | 10794 ft | 311 kts | 109° |
| 2026-04-27 07:36 | 40.85942 | 29.63737 | 11024 ft | 336 kts | 109° |
| 2026-04-27 07:36 | 40.85045 | 29.66683 | 11230 ft | 359 kts | 109° |
| 2026-04-27 07:36 | 40.84086 | 29.69837 | 11449 ft | 379 kts | 109° |
| 2026-04-27 07:37 | 40.83086 | 29.73110 | 11801 ft | 393 kts | 110° |
| 2026-04-27 07:37 | 40.82053 | 29.76475 | 12506 ft | 396 kts | 110° |
| 2026-04-27 07:37 | 40.81020 | 29.79837 | 13217 ft | 399 kts | 110° |
| 2026-04-27 07:37 | 40.79967 | 29.83263 | 13887 ft | 403 kts | 110° |
| 2026-04-27 07:38 | 40.78916 | 29.86682 | 14483 ft | 407 kts | 110° |
| 2026-04-27 07:38 | 40.77844 | 29.90170 | 15067 ft | 410 kts | 110° |
| 2026-04-27 07:38 | 40.76760 | 29.93691 | 15635 ft | 414 kts | 110° |
| 2026-04-27 07:38 | 40.75666 | 29.97241 | 16104 ft | 421 kts | 110° |
| 2026-04-27 07:39 | 40.74565 | 30.00813 | 16689 ft | 423 kts | 110° |
| 2026-04-27 07:39 | 40.73445 | 30.04433 | 17263 ft | 427 kts | 110° |
| 2026-04-27 07:39 | 40.72349 | 30.08064 | 17813 ft | 429 kts | 109° |
| 2026-04-27 07:39 | 40.71347 | 30.11761 | 18312 ft | 434 kts | 108° |
| 2026-04-27 07:40 | 40.70371 | 30.15563 | 18808 ft | 436 kts | 107° |
| 2026-04-27 07:40 | 40.69398 | 30.19365 | 19335 ft | 439 kts | 107° |
| 2026-04-27 07:40 | 40.68408 | 30.23165 | 19735 ft | 444 kts | 108° |
| 2026-04-27 07:40 | 40.67381 | 30.27052 | 20224 ft | 446 kts | 108° |
| 2026-04-27 07:41 | 40.66490 | 30.30930 | 20717 ft | 447 kts | 101° |
| 2026-04-27 07:41 | 40.66037 | 30.35012 | 21152 ft | 449 kts | 95° |
| 2026-04-27 07:41 | 40.65731 | 30.39094 | 21556 ft | 452 kts | 94° |
| 2026-04-27 07:41 | 40.65433 | 30.43252 | 22035 ft | 454 kts | 94° |
| 2026-04-27 07:42 | 40.65125 | 30.47366 | 22420 ft | 457 kts | 94° |
| 2026-04-27 07:42 | 40.64792 | 30.51568 | 22795 ft | 461 kts | 95° |
| 2026-04-27 07:42 | 40.64447 | 30.55735 | 23248 ft | 462 kts | 95° |
| 2026-04-27 07:42 | 40.64088 | 30.59978 | 23634 ft | 465 kts | 95° |
| 2026-04-27 07:43 | 40.63727 | 30.64242 | 23959 ft | 468 kts | 95° |
| 2026-04-27 07:43 | 40.63365 | 30.68489 | 24284 ft | 470 kts | 95° |
| 2026-04-27 07:43 | 40.62899 | 30.72721 | 24591 ft | 473 kts | 101° |
| 2026-04-27 07:43 | 40.62066 | 30.76937 | 24915 ft | 475 kts | 105° |
| 2026-04-27 07:44 | 40.61138 | 30.81149 | 25237 ft | 477 kts | 105° |
| 2026-04-27 07:44 | 40.60210 | 30.85296 | 25520 ft | 479 kts | 105° |
| 2026-04-27 07:44 | 40.59271 | 30.89542 | 25779 ft | 481 kts | 105° |
| 2026-04-27 07:44 | 40.58355 | 30.93758 | 26038 ft | 484 kts | 104° |
| 2026-04-27 07:45 | 40.57436 | 30.98052 | 26332 ft | 485 kts | 104° |
| 2026-04-27 07:45 | 40.56533 | 31.02294 | 26617 ft | 486 kts | 104° |
| 2026-04-27 07:45 | 40.55620 | 31.06583 | 27042 ft | 485 kts | 104° |
| 2026-04-27 07:45 | 40.54704 | 31.10875 | 27504 ft | 482 kts | 104° |
| 2026-04-27 07:46 | 40.53808 | 31.15064 | 27938 ft | 481 kts | 105° |
| 2026-04-27 07:46 | 40.52898 | 31.19307 | 28333 ft | 480 kts | 105° |
| 2026-04-27 07:46 | 40.51999 | 31.23479 | 28699 ft | 479 kts | 105° |
| 2026-04-27 07:46 | 40.51083 | 31.27716 | 29093 ft | 478 kts | 105° |
| 2026-04-27 07:47 | 40.50179 | 31.31888 | 29494 ft | 477 kts | 105° |
| 2026-04-27 07:47 | 40.49270 | 31.36076 | 30022 ft | 474 kts | 105° |
| 2026-04-27 07:47 | 40.48363 | 31.40253 | 30453 ft | 472 kts | 105° |
| 2026-04-27 07:47 | 40.47471 | 31.44357 | 30749 ft | 472 kts | 105° |
| 2026-04-27 07:48 | 40.46562 | 31.48528 | 31034 ft | 472 kts | 105° |
| 2026-04-27 07:48 | 40.45654 | 31.52688 | 31349 ft | 472 kts | 105° |
| 2026-04-27 07:48 | 40.44759 | 31.56779 | 31637 ft | 471 kts | 105° |
| 2026-04-27 07:48 | 40.43848 | 31.60939 | 31956 ft | 471 kts | 105° |
| 2026-04-27 07:49 | 40.42950 | 31.65036 | 32277 ft | 470 kts | 105° |
| 2026-04-27 07:49 | 40.42041 | 31.69175 | 32617 ft | 468 kts | 105° |
| 2026-04-27 07:49 | 40.41149 | 31.73232 | 32931 ft | 468 kts | 105° |
| 2026-04-27 07:49 | 40.40240 | 31.77356 | 33228 ft | 467 kts | 105° |
| 2026-04-27 07:50 | 40.39342 | 31.81422 | 33516 ft | 467 kts | 105° |
| 2026-04-27 07:50 | 40.38432 | 31.85538 | 33814 ft | 466 kts | 105° |
| 2026-04-27 07:50 | 40.37524 | 31.89636 | 34131 ft | 465 kts | 105° |
| 2026-04-27 07:50 | 40.36628 | 31.93671 | 34383 ft | 465 kts | 105° |
| 2026-04-27 07:51 | 40.35725 | 31.97724 | 34603 ft | 465 kts | 105° |
| 2026-04-27 07:51 | 40.34807 | 32.01811 | 34827 ft | 465 kts | 105° |
| 2026-04-27 07:51 | 40.33886 | 32.05903 | 35076 ft | 465 kts | 105° |
| 2026-04-27 07:51 | 40.32979 | 32.09936 | 35312 ft | 464 kts | 105° |
| 2026-04-27 07:52 | 40.32118 | 32.14035 | 35501 ft | 465 kts | 104° |
| 2026-04-27 07:52 | 40.31316 | 32.18109 | 35722 ft | 465 kts | 103° |
| 2026-04-27 07:52 | 40.30523 | 32.22234 | 35929 ft | 465 kts | 103° |
| 2026-04-27 07:52 | 40.29737 | 32.26320 | 36154 ft | 465 kts | 103° |
| 2026-04-27 07:53 | 40.28938 | 32.30433 | 36331 ft | 465 kts | 103° |
| 2026-04-27 07:53 | 40.28136 | 32.34519 | 36523 ft | 465 kts | 103° |
| 2026-04-27 07:53 | 40.27321 | 32.38639 | 36721 ft | 465 kts | 104° |
| 2026-04-27 07:53 | 40.26511 | 32.42705 | 36895 ft | 466 kts | 104° |
| 2026-04-27 07:54 | 40.25687 | 32.46829 | 37082 ft | 466 kts | 104° |
| 2026-04-27 07:54 | 40.25232 | 32.49098 | 37192 ft | 466 kts | 104° |
| 2026-04-27 07:55 | 40.24402 | 32.53236 | 37382 ft | 466 kts | 104° |
| 2026-04-27 07:55 | 40.23585 | 32.57304 | 37558 ft | 467 kts | 104° |
| 2026-04-27 07:55 | 40.22752 | 32.61443 | 37711 ft | 467 kts | 104° |
| 2026-04-27 07:55 | 40.21930 | 32.65519 | 37886 ft | 467 kts | 104° |
| 2026-04-27 07:56 | 40.21095 | 32.69653 | 38093 ft | 466 kts | 104° |
| 2026-04-27 07:56 | 40.20260 | 32.73782 | 38268 ft | 467 kts | 104° |
| 2026-04-27 07:56 | 40.19435 | 32.77850 | 38425 ft | 467 kts | 104° |
| 2026-04-27 07:56 | 40.18605 | 32.81937 | 38605 ft | 467 kts | 104° |
| 2026-04-27 07:57 | 40.17762 | 32.86081 | 38795 ft | 466 kts | 104° |
| 2026-04-27 07:57 | 40.16933 | 32.90148 | 38914 ft | 466 kts | 104° |
| 2026-04-27 07:57 | 40.16094 | 32.94252 | 39037 ft | 466 kts | 104° |
| 2026-04-27 07:58 | 40.14731 | 33.02478 | 39126 ft | 460 kts | 94° |
| 2026-04-27 07:58 | 40.14831 | 33.10831 | 39137 ft | 461 kts | 86° |
| 2026-04-27 07:59 | 40.15150 | 33.19185 | 39137 ft | 464 kts | 86° |
| 2026-04-27 07:59 | 40.15548 | 33.31874 | 39126 ft | 468 kts | 86° |
| 2026-04-27 08:00 | 40.15778 | 33.40372 | 39113 ft | 469 kts | 86° |
| 2026-04-27 08:00 | 40.16002 | 33.48932 | 39114 ft | 468 kts | 87° |
| 2026-04-27 08:01 | 40.16221 | 33.57438 | 39108 ft | 467 kts | 87° |
| 2026-04-27 08:01 | 40.16432 | 33.65861 | 39101 ft | 466 kts | 87° |
| 2026-04-27 08:02 | 40.16640 | 33.74360 | 39103 ft | 464 kts | 87° |
| 2026-04-27 08:02 | 40.16799 | 33.82759 | 39117 ft | 463 kts | 91° |
| 2026-04-27 08:03 | 40.15844 | 33.91063 | 39108 ft | 463 kts | 101° |
| 2026-04-27 08:03 | 40.14649 | 33.99309 | 39107 ft | 462 kts | 98° |
| 2026-04-27 08:04 | 40.13757 | 34.07586 | 39101 ft | 461 kts | 97° |
| 2026-04-27 08:04 | 40.12919 | 34.15891 | 39101 ft | 461 kts | 97° |
| 2026-04-27 08:05 | 40.12035 | 34.24245 | 39104 ft | 461 kts | 97° |
| 2026-04-27 08:05 | 40.11126 | 34.32538 | 39099 ft | 462 kts | 97° |
| 2026-04-27 08:06 | 40.10207 | 34.40804 | 39099 ft | 463 kts | 97° |
| 2026-04-27 08:06 | 40.09277 | 34.49122 | 39097 ft | 464 kts | 98° |
| 2026-04-27 08:07 | 40.08335 | 34.57498 | 39101 ft | 465 kts | 98° |
| 2026-04-27 08:07 | 40.07391 | 34.65845 | 39092 ft | 466 kts | 98° |
| 2026-04-27 08:08 | 40.06441 | 34.74185 | 39091 ft | 466 kts | 98° |
| 2026-04-27 08:08 | 40.05483 | 34.82542 | 39098 ft | 467 kts | 98° |
| 2026-04-27 08:09 | 40.04511 | 34.90962 | 39090 ft | 467 kts | 98° |
| 2026-04-27 08:09 | 40.03543 | 34.99296 | 39097 ft | 467 kts | 98° |
| 2026-04-27 08:10 | 40.02559 | 35.07717 | 39091 ft | 468 kts | 98° |
| 2026-04-27 08:10 | 40.01572 | 35.16105 | 39093 ft | 468 kts | 98° |
| 2026-04-27 08:11 | 40.00582 | 35.24470 | 39091 ft | 468 kts | 98° |
| 2026-04-27 08:11 | 39.99586 | 35.32837 | 39093 ft | 468 kts | 98° |
| 2026-04-27 08:12 | 39.98565 | 35.41230 | 39092 ft | 469 kts | 99° |
| 2026-04-27 08:12 | 39.97505 | 35.49597 | 39095 ft | 469 kts | 99° |
| 2026-04-27 08:13 | 39.96436 | 35.57982 | 39099 ft | 469 kts | 99° |
| 2026-04-27 08:13 | 39.95361 | 35.66408 | 39093 ft | 469 kts | 99° |
| 2026-04-27 08:14 | 39.94288 | 35.74782 | 39096 ft | 469 kts | 99° |
| 2026-04-27 08:14 | 39.93214 | 35.83123 | 39104 ft | 468 kts | 99° |
| 2026-04-27 08:15 | 39.92134 | 35.91463 | 39100 ft | 468 kts | 99° |
| 2026-04-27 08:15 | 39.91038 | 35.99853 | 39108 ft | 467 kts | 100° |
| 2026-04-27 08:16 | 39.89944 | 36.08181 | 39106 ft | 466 kts | 100° |
| 2026-04-27 08:16 | 39.88847 | 36.16485 | 39110 ft | 465 kts | 100° |
| 2026-04-27 08:17 | 39.87749 | 36.24772 | 39109 ft | 465 kts | 100° |
| 2026-04-27 08:17 | 39.86591 | 36.33037 | 39095 ft | 464 kts | 101° |
| 2026-04-27 08:18 | 39.85575 | 36.39883 | 39106 ft | 464 kts | 101° |
| 2026-04-27 08:18 | 39.84473 | 36.48197 | 39106 ft | 463 kts | 100° |
| 2026-04-27 08:19 | 39.83401 | 36.56415 | 39128 ft | 463 kts | 100° |
| 2026-04-27 08:19 | 39.82299 | 36.64669 | 39136 ft | 464 kts | 100° |
| 2026-04-27 08:20 | 39.81174 | 36.72986 | 39145 ft | 464 kts | 100° |
| 2026-04-27 08:20 | 39.80057 | 36.81201 | 39164 ft | 464 kts | 100° |
| 2026-04-27 08:21 | 39.79087 | 36.89548 | 39154 ft | 465 kts | 92° |
| 2026-04-27 08:21 | 39.79522 | 36.97912 | 39164 ft | 465 kts | 83° |
| 2026-04-27 08:22 | 39.80292 | 37.06228 | 39150 ft | 465 kts | 83° |
| 2026-04-27 08:22 | 39.81014 | 37.14586 | 39137 ft | 465 kts | 84° |
| 2026-04-27 08:23 | 39.81689 | 37.22940 | 39115 ft | 465 kts | 84° |
| 2026-04-27 08:23 | 39.82355 | 37.31324 | 39100 ft | 465 kts | 84° |
| 2026-04-27 08:24 | 39.83018 | 37.39707 | 39081 ft | 466 kts | 84° |
| 2026-04-27 08:24 | 39.83671 | 37.48082 | 39088 ft | 466 kts | 84° |
| 2026-04-27 08:25 | 39.84313 | 37.56482 | 39087 ft | 466 kts | 84° |
| 2026-04-27 08:25 | 39.84947 | 37.64871 | 39086 ft | 466 kts | 85° |
| 2026-04-27 08:26 | 39.85578 | 37.73276 | 39088 ft | 467 kts | 85° |
| 2026-04-27 08:26 | 39.86203 | 37.81678 | 39087 ft | 467 kts | 85° |
| 2026-04-27 08:27 | 39.86822 | 37.90078 | 39083 ft | 467 kts | 85° |
| 2026-04-27 08:27 | 39.87437 | 37.98503 | 39082 ft | 468 kts | 85° |
| 2026-04-27 08:28 | 39.88051 | 38.06925 | 39078 ft | 468 kts | 85° |
| 2026-04-27 08:28 | 39.88662 | 38.15342 | 39062 ft | 468 kts | 85° |
| 2026-04-27 08:29 | 39.89267 | 38.23770 | 39061 ft | 469 kts | 85° |
| 2026-04-27 08:29 | 39.89867 | 38.32217 | 39067 ft | 469 kts | 85° |
| 2026-04-27 08:30 | 39.90461 | 38.40677 | 39070 ft | 470 kts | 85° |
| 2026-04-27 08:30 | 39.91054 | 38.49203 | 39064 ft | 470 kts | 85° |
| 2026-04-27 08:31 | 39.91634 | 38.57639 | 39064 ft | 470 kts | 85° |
| 2026-04-27 08:31 | 39.92213 | 38.66158 | 39077 ft | 471 kts | 86° |
| 2026-04-27 08:32 | 39.92784 | 38.74643 | 39070 ft | 471 kts | 86° |
| 2026-04-27 08:32 | 39.93350 | 38.83132 | 39077 ft | 472 kts | 86° |
| 2026-04-27 08:33 | 39.93837 | 38.91640 | 39076 ft | 472 kts | 89° |
| 2026-04-27 08:33 | 39.93937 | 39.00241 | 39073 ft | 472 kts | 91° |
| 2026-04-27 08:34 | 39.94027 | 39.08776 | 39080 ft | 473 kts | 90° |
| 2026-04-27 08:34 | 39.94166 | 39.17341 | 39071 ft | 474 kts | 90° |
| 2026-04-27 08:35 | 39.94305 | 39.25913 | 39084 ft | 474 kts | 90° |
| 2026-04-27 08:35 | 39.94434 | 39.34481 | 39080 ft | 474 kts | 90° |
| 2026-04-27 08:36 | 39.94556 | 39.43092 | 39092 ft | 473 kts | 90° |
| 2026-04-27 08:36 | 39.94672 | 39.51652 | 39093 ft | 473 kts | 90° |
| 2026-04-27 08:37 | 39.94781 | 39.60210 | 39095 ft | 474 kts | 91° |
| 2026-04-27 08:37 | 39.94886 | 39.68801 | 39089 ft | 473 kts | 91° |
| 2026-04-27 08:38 | 39.94986 | 39.77368 | 39096 ft | 473 kts | 91° |
| 2026-04-27 08:38 | 39.95080 | 39.85925 | 39092 ft | 474 kts | 91° |
| 2026-04-27 08:39 | 39.95167 | 39.94552 | 39077 ft | 474 kts | 91° |
| 2026-04-27 08:39 | 39.95243 | 40.03146 | 39078 ft | 474 kts | 91° |
| 2026-04-27 08:40 | 39.95312 | 40.11676 | 39081 ft | 474 kts | 91° |
| 2026-04-27 08:40 | 39.95375 | 40.20261 | 39080 ft | 474 kts | 91° |
| 2026-04-27 08:41 | 39.95432 | 40.28862 | 39082 ft | 474 kts | 91° |
| 2026-04-27 08:41 | 39.95484 | 40.37441 | 39071 ft | 475 kts | 91° |
| 2026-04-27 08:42 | 39.95529 | 40.46082 | 39079 ft | 474 kts | 91° |
| 2026-04-27 08:42 | 39.95568 | 40.54647 | 39080 ft | 474 kts | 92° |
| 2026-04-27 08:43 | 39.95602 | 40.63229 | 39077 ft | 474 kts | 92° |
| 2026-04-27 08:43 | 39.95627 | 40.71830 | 39086 ft | 475 kts | 92° |
| 2026-04-27 08:44 | 39.95648 | 40.80452 | 39076 ft | 475 kts | 92° |
| 2026-04-27 08:44 | 39.95664 | 40.89070 | 39074 ft | 476 kts | 92° |
| 2026-04-27 08:45 | 39.95673 | 40.97675 | 39074 ft | 476 kts | 92° |
| 2026-04-27 08:45 | 39.95676 | 41.06284 | 39072 ft | 476 kts | 92° |
| 2026-04-27 08:46 | 39.95675 | 41.10646 | 38607 ft | 483 kts | 92° |
| 2026-04-27 08:46 | 39.95672 | 41.14985 | 38040 ft | 479 kts | 92° |
| 2026-04-27 08:46 | 39.95655 | 41.19329 | 37399 ft | 477 kts | 94° |
| 2026-04-27 08:46 | 39.95317 | 41.23641 | 36779 ft | 472 kts | 103° |
| 2026-04-27 08:47 | 39.94655 | 41.27791 | 36175 ft | 470 kts | 104° |
| 2026-04-27 08:47 | 39.93934 | 41.31955 | 35511 ft | 469 kts | 104° |
| 2026-04-27 08:47 | 39.93215 | 41.36067 | 34835 ft | 468 kts | 103° |
| 2026-04-27 08:47 | 39.92499 | 41.40236 | 34142 ft | 469 kts | 103° |
| 2026-04-27 08:48 | 39.91807 | 41.44355 | 33327 ft | 469 kts | 103° |
| 2026-04-27 08:48 | 39.91116 | 41.48530 | 32544 ft | 469 kts | 103° |
| 2026-04-27 08:48 | 39.90439 | 41.52646 | 31787 ft | 469 kts | 103° |
| 2026-04-27 08:48 | 39.89755 | 41.56807 | 31001 ft | 469 kts | 103° |
| 2026-04-27 08:49 | 39.89074 | 41.60935 | 30207 ft | 469 kts | 103° |
| 2026-04-27 08:49 | 39.88383 | 41.65108 | 29253 ft | 469 kts | 103° |
| 2026-04-27 08:49 | 39.87690 | 41.69278 | 28330 ft | 469 kts | 103° |
| 2026-04-27 08:49 | 39.87005 | 41.73384 | 27403 ft | 468 kts | 103° |
| 2026-04-27 08:50 | 39.86308 | 41.77548 | 26460 ft | 468 kts | 103° |
| 2026-04-27 08:50 | 39.85606 | 41.81723 | 25481 ft | 470 kts | 103° |
| 2026-04-27 08:50 | 39.84918 | 41.85808 | 24809 ft | 464 kts | 103° |
| 2026-04-27 08:50 | 39.84226 | 41.89910 | 24120 ft | 460 kts | 103° |
| 2026-04-27 08:51 | 39.83545 | 41.93941 | 23363 ft | 457 kts | 103° |
| 2026-04-27 08:51 | 39.82861 | 41.97975 | 22584 ft | 452 kts | 103° |
| 2026-04-27 08:51 | 39.82193 | 42.01911 | 21890 ft | 447 kts | 103° |
| 2026-04-27 08:51 | 39.81520 | 42.05863 | 21178 ft | 442 kts | 103° |
| 2026-04-27 08:52 | 39.80864 | 42.09715 | 20503 ft | 438 kts | 103° |
| 2026-04-27 08:52 | 39.80201 | 42.13592 | 19828 ft | 434 kts | 103° |
| 2026-04-27 08:52 | 39.79545 | 42.17426 | 19160 ft | 431 kts | 103° |
| 2026-04-27 08:52 | 39.78899 | 42.21189 | 18497 ft | 428 kts | 103° |
| 2026-04-27 08:53 | 39.78250 | 42.24963 | 17739 ft | 426 kts | 103° |
| 2026-04-27 08:53 | 39.77605 | 42.28709 | 17027 ft | 422 kts | 103° |
| 2026-04-27 08:53 | 39.76970 | 42.32388 | 16358 ft | 418 kts | 103° |
| 2026-04-27 08:53 | 39.76331 | 42.36083 | 15677 ft | 414 kts | 103° |
| 2026-04-27 08:54 | 39.75704 | 42.39695 | 15024 ft | 411 kts | 102° |
| 2026-04-27 08:54 | 39.75075 | 42.43320 | 14361 ft | 408 kts | 102° |
| 2026-04-27 08:54 | 39.74455 | 42.46885 | 13658 ft | 406 kts | 102° |
| 2026-04-27 08:54 | 39.73830 | 42.50474 | 12944 ft | 403 kts | 102° |
| 2026-04-27 08:55 | 39.73219 | 42.53976 | 12262 ft | 399 kts | 102° |
| 2026-04-27 08:55 | 39.72670 | 42.57114 | 11663 ft | 396 kts | 103° |
| 2026-04-27 08:55 | 39.72067 | 42.60544 | 11313 ft | 385 kts | 103° |
| 2026-04-27 08:55 | 39.71479 | 42.63882 | 11057 ft | 372 kts | 103° |
| 2026-04-27 08:56 | 39.70906 | 42.67124 | 10893 ft | 359 kts | 103° |
| 2026-04-27 08:56 | 39.70363 | 42.70192 | 10740 ft | 346 kts | 103° |
| 2026-04-27 08:56 | 39.69824 | 42.73208 | 10589 ft | 335 kts | 103° |
| 2026-04-27 08:56 | 39.69304 | 42.76090 | 10452 ft | 325 kts | 103° |
| 2026-04-27 08:57 | 39.68701 | 42.81682 | 10171 ft | 305 kts | 76° |
| 2026-04-27 08:57 | 39.69644 | 42.84052 | 10032 ft | 293 kts | 44° |
| 2026-04-27 08:57 | 39.71309 | 42.85427 | 9865 ft | 282 kts | 22° |
| 2026-04-27 08:58 | 39.73054 | 42.86597 | 9614 ft | 279 kts | 30° |
| 2026-04-27 08:58 | 39.74651 | 42.88018 | 9230 ft | 281 kts | 38° |
| 2026-04-27 08:58 | 39.76075 | 42.89789 | 8865 ft | 283 kts | 48° |
| 2026-04-27 08:58 | 39.77251 | 42.91813 | 8508 ft | 284 kts | 57° |
| 2026-04-27 08:59 | 39.78213 | 42.94072 | 8229 ft | 281 kts | 65° |
| 2026-04-27 08:59 | 39.78653 | 42.96432 | 8098 ft | 265 kts | 94° |
| 2026-04-27 08:59 | 39.78069 | 42.98583 | 7854 ft | 248 kts | 130° |
| 2026-04-27 08:59 | 39.76699 | 42.99814 | 7438 ft | 238 kts | 168° |
| 2026-04-27 09:00 | 39.75120 | 42.99732 | 7091 ft | 226 kts | 196° |
| 2026-04-27 09:00 | 39.73587 | 42.99602 | 6736 ft | 219 kts | 163° |
| 2026-04-27 09:00 | 39.72237 | 43.00314 | 6448 ft | 206 kts | 166° |
| 2026-04-27 09:00 | 39.70875 | 43.00611 | 6151 ft | 193 kts | 167° |
| 2026-04-27 09:01 | 39.69622 | 43.01129 | 5919 ft | 179 kts | 162° |
| 2026-04-27 09:01 | 39.68475 | 43.01568 | 5701 ft | 171 kts | 166° |
| 2026-04-27 09:01 | 39.67327 | 43.01949 | 5487 ft | 168 kts | 167° |
| 2026-04-27 09:01 | 39.66251 | 43.02338 | 5398 ft | 148 kts | 165° |
| 2026-04-27 09:02 | 39.65403 | 43.02644 | 5401 ft | 104 kts | 165° |
| 2026-04-27 09:02 | 39.64853 | 43.02842 | 5405 ft | 51 kts | 165° |
| 2026-04-27 09:02 | 39.64651 | 43.02903 | 5400 ft | 13 kts | 186° |
| 2026-04-27 09:02 | 39.64564 | 43.02891 | 5408 ft | 13 kts | 141° |
| 2026-04-27 09:03 | 39.64601 | 43.02952 | 5398 ft | 13 kts | 333° |
| 2026-04-27 09:03 | 39.64680 | 43.02908 | 5403 ft | 12 kts | 341° |
| 2026-04-27 09:03 | 39.64761 | 43.02872 | 5399 ft | 13 kts | 343° |
| 2026-04-27 09:03 | 39.64857 | 43.02835 | 5409 ft | 16 kts | 343° |
| 2026-04-27 09:04 | 39.64984 | 43.02790 | 5406 ft | 24 kts | 346° |
| 2026-04-27 09:04 | 39.65173 | 43.02724 | 5406 ft | 30 kts | 345° |
| 2026-04-27 09:04 | 39.65374 | 43.02651 | 5399 ft | 29 kts | 344° |
| 2026-04-27 09:04 | 39.65545 | 43.02580 | 5402 ft | 15 kts | 319° |
| 2026-04-27 09:05 | 39.65546 | 43.02481 | 5396 ft | 11 kts | 257° |
| 2026-04-27 09:05 | 39.65527 | 43.02385 | 5403 ft | 11 kts | 255° |
| 2026-04-27 09:05 | 39.65509 | 43.02293 | 5407 ft | 10 kts | 255° |
| 2026-04-27 09:05 | 39.65493 | 43.02218 | 5410 ft | 7 kts | 253° |
| 2026-04-27 09:06 | 39.65490 | 43.02205 | 5398 ft | 0 kts | 253° |